Terminal Aerodrome Forecast
Issued by NWS

Home | Current Version | Previous Version | Text Only | Print | Product List | Glossary On
Versions: 1 2 3 4 5 6 7 8 9 10 11 12 13 14 15
000
FTUS41 KPBZ 040101 AAA
TAFBVI
TAF AMD
KBVI 040101Z 0401/0424 14005KT P6SM -SHRA OVC035
     FM040130 07005KT 4SM -SHRA BR OVC025
      TEMPO 0403/0407 1 1/2SM RA
     FM041000 VRB05KT 6SM -SHRA BR OVC008
     FM041500 32008KT P6SM BKN020
     FM041700 33008KT P6SM SCT025=

USA.gov is the U.S. government's official web portal to all federal, state and local government web resources and services.